DABT

Batna Airport

Batna, Algeria
TAF DABT 171700Z 1718/1818 30010KT 8000 FEW020TCU SCT200 PROB30 TEMPO 1718/1721 5000 -TSRA FEW020CB BKN030 BECMG 1719/1721 VRB02KT NSW PROB30 TEMPO 1800/1806 3000 BR BKN010 BECMG 1804/1806 20008KT
Issued Valid From Valid To
Nov-17 @ 17:00 UTC
(5 hours ago)
Nov-17 @ 18:00 UTC
(4 hours ago)
Nov-18 @ 18:00 UTC
(in 20 hours)
Expired Click to View Nov-17 @ 18:00 to Nov-17 @ 19:00
TAF DABT 171700Z 1718/1818 30010KT 8000 FEW020TCU SCT200
Wind Visibility Clouds
300° at 10 knots 7,998 meters
  • Few at 2,000' AGL
  • Scattered at 20,000' AGL
Expired Click to View Nov-17 @ 18:00 to Nov-17 @ 21:00
PROB30 TEMPO 1718/1721 5000 -TSRA FEW020CB BKN030
Visibility Clouds Conditions
5,005 meters
  • Few at 2,000' AGL
  • Broken at 3,000' AGL
  • Light Thunderstorm
  • Light Rain
Becoming Nov-17 @ 19:00 to Nov-18 @ 04:00
BECMG 1719/1721 VRB02KT NSW
Wind Visibility Clouds Conditions
Variable at 2 knots 7,998 meters
  • Few at 2,000' AGL
  • Scattered at 20,000' AGL
Temporary  (Probability 30%) Nov-18 @ 00:00 to Nov-18 @ 06:00
PROB30 TEMPO 1800/1806 3000 BR BKN010
Visibility Clouds Conditions
2,993 meters
  • Broken at 1,000' AGL
  • Mist
Becoming Nov-18 @ 04:00 to Nov-18 @ 18:00
BECMG 1804/1806 20008KT
Wind Visibility Clouds Conditions
200° at 8 knots 7,998 meters
  • Few at 2,000' AGL
  • Scattered at 20,000' AGL
TAF DABT 171700Z 1718/1818 30010KT 8000 FEW020TCU SCT200 PROB30 TEMPO 1718/1721 5000 -TSRA FEW020CB BKN030 BECMG 1719/1721 VRB02KT NSW PROB30 TEMPO 1800/1806 3000 BR BKN010 BECMG 1804/1806 20008KT
Issued Nov-17 @ 17:00 UTC
(5 hours ago)
Valid From Nov-17 @ 18:00 UTC
(4 hours ago)
Valid To Nov-18 @ 18:00 UTC
(in 20 hours)
Nov-17 @ 18:00 - Nov-17 @ 19:00
Wind Visibility
300° at 10 knots 7,998 meters
Clouds
  • Few at 2,000' AGL
  • Scattered at 20,000' AGL
Nov-17 @ 18:00 - Nov-17 @ 21:00
Clouds
  • Few at 2,000' AGL
  • Broken at 3,000' AGL
Conditions
  • Light Thunderstorm
  • Light Rain
Becoming Nov-17 @ 19:00 - Nov-18 @ 04:00
Wind Visibility
Variable at 2 knots 7,998 meters
Clouds
  • Few at 2,000' AGL
  • Scattered at 20,000' AGL
Conditions
Probability 30% Temporary Nov-18 @ 00:00 - Nov-18 @ 06:00
Clouds
  • Broken at 1,000' AGL
Conditions
  • Mist
Becoming Nov-18 @ 04:00 - Nov-18 @ 18:00
Wind Visibility
200° at 8 knots 7,998 meters
Clouds
  • Few at 2,000' AGL
  • Scattered at 20,000' AGL
Conditions